Portada
METAR-TAF:

METAR-TAF

Aeroports :

Sukkur, Pakistan

latitud: 27-43-19N, longitud: 068-47-31E, altitud: 60 m

Observació

L'informe es va fer fa 41 minuts, a les 04:00 UTC
Vent 4 kt del Est
Temperatura 26°C
Humitat 58%
Pressió 1013 hPa
Visibilitat: 3000 m
calitja

METAR: OPSK 210400Z 09004KT 3000 HZ NSC 26/17 Q1013 NOSIG

Hora: 09:41 (04:41 UTC)

Pronòstic

L'informe es va fer fa 7 hores i 11 minuts, a les 21:30 UTC
Pronòstic vàlid del 21 a les 00 UTC al 21 a les 24 UTC
Vent 8 kt del Sud/Sud-Est
Visibilitat: 5000 m
calitja
Temporalment
l' 21 a les 00 UTC al 21 a les 04 UTC
Vent 5 kt del Sud-Est
Visibilitat: 3000 m
fum

TAF: OPSK 202130Z 2100/2124 16008KT 5000 HZ NSC TEMPO 2100/2104 14005KT 3000 FU NSC

Observacions i pronòstics meteorològics de més de 4000 aeroports (METAR i TAF).

Les estacions disponibles són els punts grocs i vermells al mapa.

Posi el ratolí al punt desitjat per veure el nom de l'estació.

Feu clic per veure les observacions i els pronòstics meteorològics.

Per canviar el mapa: feu clic els botons verds amb una creu de color negre per apropar; al botó verd amb un guió per allunyar la imatge; o en les fletxes verdes per a mapes adjacents.


METAR-TAF: